sensor_id;sensor_type;location;lat;lon;timestamp;pressure;altitude;pressure_sealevel;temperature;humidity
23996;BME280;12207;50.076;8.848;2024-03-22T00:01:45;100713.19;;;8.77;100.00
23996;BME280;12207;50.076;8.848;2024-03-22T00:04:14;100712.75;;;8.73;100.00
23996;BME280;12207;50.076;8.848;2024-03-22T00:06:46;100705.09;;;8.70;100.00
23996;BME280;12207;50.076;8.848;2024-03-22T00:09:12;100698.84;;;8.63;100.00
23996;BME280;12207;50.076;8.848;2024-03-22T00:11:45;100697.00;;;8.64;100.00
23996;BME280;12207;50.076;8.848;2024-03-22T00:14:11;100693.22;;;8.58;100.00
23996;BME280;12207;50.076;8.848;2024-03-22T00:16:38;100690.56;;;8.58;100.00
23996;BME280;12207;50.076;8.848;2024-03-22T00:19:04;100688.06;;;8.57;100.00
23996;BME280;12207;50.076;8.848;2024-03-22T00:21:31;100698.38;;;8.60;100.00
23996;BME280;12207;50.076;8.848;2024-03-22T00:23:57;100693.13;;;8.51;100.00
23996;BME280;12207;50.076;8.848;2024-03-22T00:26:23;100683.22;;;8.45;100.00
23996;BME280;12207;50.076;8.848;2024-03-22T00:28:50;100685.88;;;8.45;100.00
23996;BME280;12207;50.076;8.848;2024-03-22T00:31:16;100689.94;;;8.41;100.00
23996;BME280;12207;50.076;8.848;2024-03-22T00:33:43;100681.09;;;8.41;100.00
23996;BME280;12207;50.076;8.848;2024-03-22T00:36:09;100680.44;;;8.39;100.00
23996;BME280;12207;50.076;8.848;2024-03-22T00:38:35;100669.66;;;8.32;100.00
23996;BME280;12207;50.076;8.848;2024-03-22T00:41:01;100677.00;;;8.30;100.00
23996;BME280;12207;50.076;8.848;2024-03-22T00:43:28;100670.41;;;8.26;100.00
23996;BME280;12207;50.076;8.848;2024-03-22T00:45:56;100665.44;;;8.23;100.00
23996;BME280;12207;50.076;8.848;2024-03-22T00:48:24;100662.13;;;8.21;100.00
23996;BME280;12207;50.076;8.848;2024-03-22T00:50:50;100660.44;;;8.20;100.00
23996;BME280;12207;50.076;8.848;2024-03-22T00:53:16;100656.22;;;8.11;100.00
23996;BME280;12207;50.076;8.848;2024-03-22T00:55:42;100651.69;;;8.11;100.00
23996;BME280;12207;50.076;8.848;2024-03-22T00:58:08;100658.22;;;8.09;100.00
23996;BME280;12207;50.076;8.848;2024-03-22T01:00:34;100666.88;;;8.11;100.00
23996;BME280;12207;50.076;8.848;2024-03-22T01:03:02;100656.22;;;8.11;100.00
23996;BME280;12207;50.076;8.848;2024-03-22T01:05:28;100642.88;;;8.11;100.00
23996;BME280;12207;50.076;8.848;2024-03-22T01:07:54;100642.59;;;8.06;100.00
23996;BME280;12207;50.076;8.848;2024-03-22T01:10:21;100633.03;;;7.97;100.00
23996;BME280;12207;50.076;8.848;2024-03-22T01:12:47;100628.34;;;7.99;100.00
23996;BME280;12207;50.076;8.848;2024-03-22T01:15:16;100623.56;;;7.94;100.00
23996;BME280;12207;50.076;8.848;2024-03-22T01:17:42;100616.56;;;7.93;100.00
23996;BME280;12207;50.076;8.848;2024-03-22T01:20:11;100619.41;;;7.92;100.00
23996;BME280;12207;50.076;8.848;2024-03-22T01:22:37;100616.75;;;7.92;100.00
23996;BME280;12207;50.076;8.848;2024-03-22T01:25:06;100611.59;;;7.90;100.00
23996;BME280;12207;50.076;8.848;2024-03-22T01:27:33;100608.09;;;7.90;100.00
23996;BME280;12207;50.076;8.848;2024-03-22T01:29:59;100613.78;;;7.86;100.00
23996;BME280;12207;50.076;8.848;2024-03-22T01:32:25;100611.84;;;7.80;100.00
23996;BME280;12207;50.076;8.848;2024-03-22T01:34:51;100623.28;;;7.74;100.00
23996;BME280;12207;50.076;8.848;2024-03-22T01:37:18;100626.13;;;7.73;100.00
23996;BME280;12207;50.076;8.848;2024-03-22T01:39:44;100623.16;;;7.68;100.00
23996;BME280;12207;50.076;8.848;2024-03-22T01:42:10;100620.56;;;7.60;100.00
23996;BME280;12207;50.076;8.848;2024-03-22T01:44:36;100626.72;;;7.60;100.00
23996;BME280;12207;50.076;8.848;2024-03-22T01:47:02;100624.16;;;7.52;100.00
23996;BME280;12207;50.076;8.848;2024-03-22T01:49:29;100624.41;;;7.42;100.00
23996;BME280;12207;50.076;8.848;2024-03-22T01:51:56;100620.44;;;7.38;100.00
23996;BME280;12207;50.076;8.848;2024-03-22T01:54:22;100628.69;;;7.29;100.00
23996;BME280;12207;50.076;8.848;2024-03-22T01:56:48;100619.56;;;7.23;100.00
23996;BME280;12207;50.076;8.848;2024-03-22T01:59:14;100617.63;;;7.17;100.00
23996;BME280;12207;50.076;8.848;2024-03-22T02:01:44;100614.47;;;7.13;100.00
23996;BME280;12207;50.076;8.848;2024-03-22T02:04:10;100608.97;;;7.15;100.00
23996;BME280;12207;50.076;8.848;2024-03-22T02:06:36;100612.81;;;7.12;100.00
23996;BME280;12207;50.076;8.848;2024-03-22T02:09:02;100607.00;;;7.09;100.00
23996;BME280;12207;50.076;8.848;2024-03-22T02:11:31;100605.75;;;7.05;100.00
23996;BME280;12207;50.076;8.848;2024-03-22T02:13:58;100597.56;;;7.06;100.00
23996;BME280;12207;50.076;8.848;2024-03-22T02:16:24;100591.59;;;7.04;100.00
23996;BME280;12207;50.076;8.848;2024-03-22T02:18:50;100594.59;;;7.01;100.00
23996;BME280;12207;50.076;8.848;2024-03-22T02:21:16;100583.59;;;7.04;100.00
23996;BME280;12207;50.076;8.848;2024-03-22T02:23:42;100573.78;;;7.05;100.00
23996;BME280;12207;50.076;8.848;2024-03-22T02:26:08;100572.94;;;7.04;100.00
23996;BME280;12207;50.076;8.848;2024-03-22T02:28:35;100577.91;;;7.07;100.00
23996;BME280;12207;50.076;8.848;2024-03-22T02:31:02;100560.91;;;7.08;100.00
23996;BME280;12207;50.076;8.848;2024-03-22T02:33:29;100556.22;;;7.10;100.00
23996;BME280;12207;50.076;8.848;2024-03-22T02:35:56;100555.19;;;7.11;100.00
23996;BME280;12207;50.076;8.848;2024-03-22T02:38:22;100559.88;;;7.09;100.00
23996;BME280;12207;50.076;8.848;2024-03-22T02:40:50;100561.28;;;7.05;100.00
23996;BME280;12207;50.076;8.848;2024-03-22T02:43:16;100557.13;;;7.03;100.00
23996;BME280;12207;50.076;8.848;2024-03-22T02:45:47;100569.44;;;7.04;100.00
23996;BME280;12207;50.076;8.848;2024-03-22T02:48:13;100557.31;;;7.01;100.00
23996;BME280;12207;50.076;8.848;2024-03-22T02:50:39;100560.97;;;7.00;100.00
23996;BME280;12207;50.076;8.848;2024-03-22T02:53:06;100560.50;;;6.97;100.00
23996;BME280;12207;50.076;8.848;2024-03-22T02:55:39;100555.00;;;6.98;100.00
23996;BME280;12207;50.076;8.848;2024-03-22T02:58:06;100554.00;;;6.99;100.00
23996;BME280;12207;50.076;8.848;2024-03-22T03:00:38;100553.63;;;7.02;100.00
23996;BME280;12207;50.076;8.848;2024-03-22T03:03:05;100553.47;;;7.04;100.00
23996;BME280;12207;50.076;8.848;2024-03-22T03:05:31;100555.66;;;7.00;100.00
23996;BME280;12207;50.076;8.848;2024-03-22T03:07:58;100546.34;;;6.96;100.00
23996;BME280;12207;50.076;8.848;2024-03-22T03:10:24;100556.72;;;6.91;100.00
23996;BME280;12207;50.076;8.848;2024-03-22T03:12:50;100550.47;;;6.84;100.00
23996;BME280;12207;50.076;8.848;2024-03-22T03:15:17;100549.81;;;6.82;100.00
23996;BME280;12207;50.076;8.848;2024-03-22T03:17:43;100543.34;;;6.76;100.00
23996;BME280;12207;50.076;8.848;2024-03-22T03:20:12;100542.88;;;6.73;100.00
23996;BME280;12207;50.076;8.848;2024-03-22T03:22:40;100540.03;;;6.74;100.00
23996;BME280;12207;50.076;8.848;2024-03-22T03:25:06;100544.38;;;6.75;100.00
23996;BME280;12207;50.076;8.848;2024-03-22T03:27:33;100543.19;;;6.78;100.00
23996;BME280;12207;50.076;8.848;2024-03-22T03:29:59;100541.34;;;6.78;100.00
23996;BME280;12207;50.076;8.848;2024-03-22T03:32:25;100546.03;;;6.76;100.00
23996;BME280;12207;50.076;8.848;2024-03-22T03:34:52;100541.56;;;6.69;100.00
23996;BME280;12207;50.076;8.848;2024-03-22T03:37:18;100541.09;;;6.65;100.00
23996;BME280;12207;50.076;8.848;2024-03-22T03:39:44;100537.94;;;6.62;100.00
23996;BME280;12207;50.076;8.848;2024-03-22T03:42:10;100537.91;;;6.70;100.00
23996;BME280;12207;50.076;8.848;2024-03-22T03:44:37;100530.22;;;6.75;100.00
23996;BME280;12207;50.076;8.848;2024-03-22T03:47:03;100526.91;;;6.73;100.00
23996;BME280;12207;50.076;8.848;2024-03-22T03:49:29;100524.78;;;6.68;100.00
23996;BME280;12207;50.076;8.848;2024-03-22T03:51:55;100526.06;;;6.72;100.00
23996;BME280;12207;50.076;8.848;2024-03-22T03:54:21;100525.25;;;6.72;100.00
23996;BME280;12207;50.076;8.848;2024-03-22T03:56:47;100535.38;;;6.76;100.00
23996;BME280;12207;50.076;8.848;2024-03-22T03:59:17;100517.19;;;6.80;100.00
23996;BME280;12207;50.076;8.848;2024-03-22T04:01:43;100516.56;;;6.78;100.00
23996;BME280;12207;50.076;8.848;2024-03-22T04:04:09;100510.41;;;6.77;100.00
23996;BME280;12207;50.076;8.848;2024-03-22T04:06:35;100508.91;;;6.75;100.00
23996;BME280;12207;50.076;8.848;2024-03-22T04:09:01;100502.94;;;6.73;100.00
23996;BME280;12207;50.076;8.848;2024-03-22T04:11:29;100499.91;;;6.76;100.00
23996;BME280;12207;50.076;8.848;2024-03-22T04:13:55;100500.75;;;6.76;100.00
23996;BME280;12207;50.076;8.848;2024-03-22T04:16:23;100498.91;;;6.77;100.00
23996;BME280;12207;50.076;8.848;2024-03-22T04:18:49;100500.75;;;6.76;100.00
23996;BME280;12207;50.076;8.848;2024-03-22T04:21:16;100499.91;;;6.76;100.00
23996;BME280;12207;50.076;8.848;2024-03-22T04:23:42;100494.59;;;6.76;100.00
23996;BME280;12207;50.076;8.848;2024-03-22T04:26:08;100497.09;;;6.77;100.00
23996;BME280;12207;50.076;8.848;2024-03-22T04:28:34;100500.22;;;6.81;100.00
23996;BME280;12207;50.076;8.848;2024-03-22T04:31:05;100486.59;;;6.76;100.00
23996;BME280;12207;50.076;8.848;2024-03-22T04:33:32;100484.13;;;6.74;100.00
23996;BME280;12207;50.076;8.848;2024-03-22T04:35:59;100490.94;;;6.77;100.00
23996;BME280;12207;50.076;8.848;2024-03-22T04:38:26;100499.09;;;6.75;100.00
23996;BME280;12207;50.076;8.848;2024-03-22T04:40:52;100493.59;;;6.77;100.00
23996;BME280;12207;50.076;8.848;2024-03-22T04:43:19;100495.25;;;6.78;100.00
23996;BME280;12207;50.076;8.848;2024-03-22T04:45:47;100488.44;;;6.75;100.00
23996;BME280;12207;50.076;8.848;2024-03-22T04:48:16;100484.59;;;6.78;100.00
23996;BME280;12207;50.076;8.848;2024-03-22T04:50:42;100488.63;;;6.74;100.00
23996;BME280;12207;50.076;8.848;2024-03-22T04:53:08;100498.44;;;6.73;100.00
23996;BME280;12207;50.076;8.848;2024-03-22T04:55:34;100499.09;;;6.75;100.00
23996;BME280;12207;50.076;8.848;2024-03-22T04:58:01;100493.28;;;6.72;100.00
23996;BME280;12207;50.076;8.848;2024-03-22T05:00:28;100495.47;;;6.68;100.00
23996;BME280;12207;50.076;8.848;2024-03-22T05:02:54;100498.78;;;6.70;100.00
23996;BME280;12207;50.076;8.848;2024-03-22T05:05:20;100498.13;;;6.68;100.00
23996;BME280;12207;50.076;8.848;2024-03-22T05:07:47;100495.47;;;6.68;100.00
23996;BME280;12207;50.076;8.848;2024-03-22T05:10:13;100499.31;;;6.66;100.00
23996;BME280;12207;50.076;8.848;2024-03-22T05:12:39;100489.97;;;6.70;100.00
23996;BME280;12207;50.076;8.848;2024-03-22T05:15:06;100496.31;;;6.69;100.00
23996;BME280;12207;50.076;8.848;2024-03-22T05:17:33;100490.16;;;6.68;100.00
23996;BME280;12207;50.076;8.848;2024-03-22T05:19:59;100483.94;;;6.76;100.00
23996;BME280;12207;50.076;8.848;2024-03-22T05:22:25;100486.59;;;6.76;100.00
23996;BME280;12207;50.076;8.848;2024-03-22T05:24:52;100489.22;;;6.84;100.00
23996;BME280;12207;50.076;8.848;2024-03-22T05:27:18;100492.44;;;6.94;100.00
23996;BME280;12207;50.076;8.848;2024-03-22T05:29:44;100484.63;;;6.93;100.00
23996;BME280;12207;50.076;8.848;2024-03-22T05:32:10;100485.09;;;6.96;100.00
23996;BME280;12207;50.076;8.848;2024-03-22T05:34:37;100473.91;;;7.01;100.00
23996;BME280;12207;50.076;8.848;2024-03-22T05:37:03;100482.00;;;7.07;100.00
23996;BME280;12207;50.076;8.848;2024-03-22T05:39:29;100478.31;;;7.08;100.00
23996;BME280;12207;50.076;8.848;2024-03-22T05:41:55;100477.09;;;7.11;100.00
23996;BME280;12207;50.076;8.848;2024-03-22T05:44:22;100483.56;;;7.16;100.00
23996;BME280;12207;50.076;8.848;2024-03-22T05:46:48;100480.81;;;7.25;100.00
23996;BME280;12207;50.076;8.848;2024-03-22T05:49:15;100486.03;;;7.33;100.00
23996;BME280;12207;50.076;8.848;2024-03-22T05:51:41;100479.50;;;7.35;100.00
23996;BME280;12207;50.076;8.848;2024-03-22T05:54:07;100481.28;;;7.43;100.00
23996;BME280;12207;50.076;8.848;2024-03-22T05:56:33;100477.88;;;7.49;100.00
23996;BME280;12207;50.076;8.848;2024-03-22T05:58:59;100478.41;;;7.59;100.00
23996;BME280;12207;50.076;8.848;2024-03-22T06:01:26;100464.88;;;7.75;100.00
23996;BME280;12207;50.076;8.848;2024-03-22T06:03:52;100463.22;;;7.74;100.00
23996;BME280;12207;50.076;8.848;2024-03-22T06:06:18;100467.16;;;7.93;100.00
23996;BME280;12207;50.076;8.848;2024-03-22T06:08:44;100465.63;;;8.05;100.00
23996;BME280;12207;50.076;8.848;2024-03-22T06:11:11;100462.47;;;8.16;100.00
23996;BME280;12207;50.076;8.848;2024-03-22T06:13:37;100469.97;;;8.42;100.00
23996;BME280;12207;50.076;8.848;2024-03-22T06:16:04;100456.97;;;8.61;100.00
23996;BME280;12207;50.076;8.848;2024-03-22T06:18:30;100462.19;;;8.69;100.00
23996;BME280;12207;50.076;8.848;2024-03-22T06:20:56;100460.63;;;8.81;100.00
23996;BME280;12207;50.076;8.848;2024-03-22T06:23:23;100448.75;;;8.83;100.00
23996;BME280;12207;50.076;8.848;2024-03-22T06:25:55;100446.47;;;9.08;100.00
23996;BME280;12207;50.076;8.848;2024-03-22T06:28:22;100449.84;;;9.23;100.00
23996;BME280;12207;50.076;8.848;2024-03-22T06:30:49;100447.09;;;9.51;100.00
23996;BME280;12207;50.076;8.848;2024-03-22T06:33:15;100441.94;;;9.91;98.77
23996;BME280;12207;50.076;8.848;2024-03-22T06:35:41;100437.13;;;10.47;96.71
23996;BME280;12207;50.076;8.848;2024-03-22T06:38:08;100443.75;;;10.78;95.32
23996;BME280;12207;50.076;8.848;2024-03-22T06:40:35;100441.88;;;10.91;93.45
23996;BME280;12207;50.076;8.848;2024-03-22T06:43:01;100435.84;;;11.16;92.96
23996;BME280;12207;50.076;8.848;2024-03-22T06:45:27;100438.69;;;11.34;91.52
23996;BME280;12207;50.076;8.848;2024-03-22T06:47:53;100444.88;;;11.48;89.12
23996;BME280;12207;50.076;8.848;2024-03-22T06:50:20;100427.19;;;11.27;89.68
23996;BME280;12207;50.076;8.848;2024-03-22T06:52:50;100426.16;;;11.21;90.88
23996;BME280;12207;50.076;8.848;2024-03-22T06:55:17;100426.78;;;11.10;91.88
23996;BME280;12207;50.076;8.848;2024-03-22T06:57:45;100428.47;;;10.98;92.30
23996;BME280;12207;50.076;8.848;2024-03-22T07:00:12;100431.75;;;10.87;91.87
23996;BME280;12207;50.076;8.848;2024-03-22T07:02:39;100429.72;;;10.76;93.17
23996;BME280;12207;50.076;8.848;2024-03-22T07:05:06;100429.09;;;10.74;94.37
23996;BME280;12207;50.076;8.848;2024-03-22T07:07:33;100426.84;;;10.71;94.50
23996;BME280;12207;50.076;8.848;2024-03-22T07:10:00;100429.09;;;10.74;94.18
23996;BME280;12207;50.076;8.848;2024-03-22T07:12:26;100421.88;;;10.74;94.31
23996;BME280;12207;50.076;8.848;2024-03-22T07:14:52;100417.97;;;10.83;94.51
23996;BME280;12207;50.076;8.848;2024-03-22T07:17:18;100412.81;;;10.82;94.50
23996;BME280;12207;50.076;8.848;2024-03-22T07:19:52;100413.44;;;10.77;95.78
23996;BME280;12207;50.076;8.848;2024-03-22T07:22:19;100417.75;;;10.78;94.59
23996;BME280;12207;50.076;8.848;2024-03-22T07:24:46;100419.81;;;10.89;95.30
23996;BME280;12207;50.076;8.848;2024-03-22T07:27:13;100413.00;;;10.87;95.82
23996;BME280;12207;50.076;8.848;2024-03-22T07:29:43;100412.81;;;10.82;95.82
23996;BME280;12207;50.076;8.848;2024-03-22T07:32:09;100411.16;;;10.68;95.32
23996;BME280;12207;50.076;8.848;2024-03-22T07:34:35;100412.41;;;10.72;95.54
23996;BME280;12207;50.076;8.848;2024-03-22T07:37:04;100412.81;;;10.75;96.55
23996;BME280;12207;50.076;8.848;2024-03-22T07:39:30;100417.97;;;10.77;97.66
23996;BME280;12207;50.076;8.848;2024-03-22T07:41:59;100413.44;;;10.71;97.65
23996;BME280;12207;50.076;8.848;2024-03-22T07:44:28;100410.97;;;10.76;98.33
23996;BME280;12207;50.076;8.848;2024-03-22T07:46:54;100409.09;;;10.70;98.40
23996;BME280;12207;50.076;8.848;2024-03-22T07:49:21;100406.84;;;10.67;98.42
23996;BME280;12207;50.076;8.848;2024-03-22T07:51:47;100404.97;;;10.47;98.96
23996;BME280;12207;50.076;8.848;2024-03-22T07:54:13;100403.56;;;10.58;99.91
23996;BME280;12207;50.076;8.848;2024-03-22T07:56:39;100409.13;;;10.56;98.73
23996;BME280;12207;50.076;8.848;2024-03-22T07:59:05;100409.09;;;10.63;98.32
23996;BME280;12207;50.076;8.848;2024-03-22T08:01:31;100406.66;;;10.62;98.52
23996;BME280;12207;50.076;8.848;2024-03-22T08:03:57;100409.53;;;10.60;99.19
23996;BME280;12207;50.076;8.848;2024-03-22T08:06:26;100402.91;;;10.76;100.00
23996;BME280;12207;50.076;8.848;2024-03-22T08:08:52;100405.41;;;10.77;100.00
23996;BME280;12207;50.076;8.848;2024-03-22T08:11:19;100398.38;;;10.83;100.00
23996;BME280;12207;50.076;8.848;2024-03-22T08:13:45;100403.72;;;10.89;100.00
23996;BME280;12207;50.076;8.848;2024-03-22T08:16:12;100399.59;;;11.00;100.00
23996;BME280;12207;50.076;8.848;2024-03-22T08:18:38;100395.47;;;11.04;100.00
23996;BME280;12207;50.076;8.848;2024-03-22T08:21:07;100400.78;;;11.17;100.00
23996;BME280;12207;50.076;8.848;2024-03-22T08:23:33;100386.34;;;11.18;100.00
23996;BME280;12207;50.076;8.848;2024-03-22T08:26:00;100384.28;;;11.20;100.00
23996;BME280;12207;50.076;8.848;2024-03-22T08:28:26;100376.03;;;11.22;100.00
23996;BME280;12207;50.076;8.848;2024-03-22T08:30:53;100375.81;;;11.17;100.00
23996;BME280;12207;50.076;8.848;2024-03-22T08:33:19;100375.41;;;11.13;100.00
23996;BME280;12207;50.076;8.848;2024-03-22T08:35:45;100371.69;;;11.14;100.00
23996;BME280;12207;50.076;8.848;2024-03-22T08:38:11;100360.34;;;11.12;100.00
23996;BME280;12207;50.076;8.848;2024-03-22T08:40:40;100358.72;;;11.11;100.00
23996;BME280;12207;50.076;8.848;2024-03-22T08:43:07;100354.56;;;11.15;100.00
23996;BME280;12207;50.076;8.848;2024-03-22T08:45:33;100356.00;;;11.24;100.00
23996;BME280;12207;50.076;8.848;2024-03-22T08:47:59;100355.09;;;11.37;100.00
23996;BME280;12207;50.076;8.848;2024-03-22T08:50:26;100355.28;;;11.49;100.00
23996;BME280;12207;50.076;8.848;2024-03-22T08:52:52;100360.16;;;11.65;100.00
23996;BME280;12207;50.076;8.848;2024-03-22T08:55:18;100353.50;;;11.74;100.00
23996;BME280;12207;50.076;8.848;2024-03-22T08:57:44;100354.06;;;11.89;100.00
23996;BME280;12207;50.076;8.848;2024-03-22T09:00:11;100357.44;;;12.10;100.00
23996;BME280;12207;50.076;8.848;2024-03-22T09:02:37;100346.84;;;12.15;100.00
23996;BME280;12207;50.076;8.848;2024-03-22T09:05:05;100351.91;;;12.29;100.00
23996;BME280;12207;50.076;8.848;2024-03-22T09:07:31;100333.66;;;12.38;100.00
23996;BME280;12207;50.076;8.848;2024-03-22T09:09:58;100341.00;;;12.49;100.00
23996;BME280;12207;50.076;8.848;2024-03-22T09:12:24;100339.78;;;12.70;100.00
23996;BME280;12207;50.076;8.848;2024-03-22T09:14:50;100335.25;;;12.89;100.00
23996;BME280;12207;50.076;8.848;2024-03-22T09:17:19;100330.81;;;13.19;99.47
23996;BME280;12207;50.076;8.848;2024-03-22T09:19:48;100320.38;;;13.41;97.62
23996;BME280;12207;50.076;8.848;2024-03-22T09:22:14;100318.09;;;13.56;97.75
23996;BME280;12207;50.076;8.848;2024-03-22T09:24:41;100316.44;;;13.85;95.59
23996;BME280;12207;50.076;8.848;2024-03-22T09:27:07;100311.13;;;14.09;94.18
23996;BME280;12207;50.076;8.848;2024-03-22T09:29:36;100313.97;;;14.37;92.45
23996;BME280;12207;50.076;8.848;2024-03-22T09:32:03;100313.06;;;14.55;91.60
23996;BME280;12207;50.076;8.848;2024-03-22T09:34:29;100306.59;;;14.67;90.75
23996;BME280;12207;50.076;8.848;2024-03-22T09:36:56;100304.00;;;14.96;91.21
23996;BME280;12207;50.076;8.848;2024-03-22T09:39:22;100305.75;;;15.02;89.55
23996;BME280;12207;50.076;8.848;2024-03-22T09:41:50;100299.84;;;15.17;89.52
23996;BME280;12207;50.076;8.848;2024-03-22T09:44:19;100296.41;;;15.21;88.21
23996;BME280;12207;50.076;8.848;2024-03-22T09:46:48;100286.13;;;15.47;84.40
23996;BME280;12207;50.076;8.848;2024-03-22T09:49:16;100285.44;;;15.40;83.75
23996;BME280;12207;50.076;8.848;2024-03-22T09:51:45;100284.38;;;15.41;81.37
23996;BME280;12207;50.076;8.848;2024-03-22T09:54:11;100279.19;;;15.51;79.52
23996;BME280;12207;50.076;8.848;2024-03-22T09:56:41;100278.25;;;15.45;79.24
23996;BME280;12207;50.076;8.848;2024-03-22T09:59:11;100276.47;;;15.51;78.75
23996;BME280;12207;50.076;8.848;2024-03-22T10:01:37;100284.50;;;15.74;77.47
23996;BME280;12207;50.076;8.848;2024-03-22T10:04:05;100273.97;;;15.61;78.03
23996;BME280;12207;50.076;8.848;2024-03-22T10:06:31;100274.50;;;15.75;74.31
23996;BME280;12207;50.076;8.848;2024-03-22T10:09:01;100272.06;;;15.73;73.14
23996;BME280;12207;50.076;8.848;2024-03-22T10:11:27;100280.25;;;15.78;74.32
23996;BME280;12207;50.076;8.848;2024-03-22T10:13:53;100270.84;;;15.97;75.51
23996;BME280;12207;50.076;8.848;2024-03-22T10:16:21;100264.38;;;15.98;71.83
23996;BME280;12207;50.076;8.848;2024-03-22T10:18:47;100260.03;;;15.97;73.97
23996;BME280;12207;50.076;8.848;2024-03-22T10:21:17;100251.69;;;16.16;72.13
23996;BME280;12207;50.076;8.848;2024-03-22T10:23:47;100250.44;;;16.40;71.17
23996;BME280;12207;50.076;8.848;2024-03-22T10:26:14;100246.38;;;16.59;70.15
23996;BME280;12207;50.076;8.848;2024-03-22T10:28:47;100238.25;;;16.59;70.50
23996;BME280;12207;50.076;8.848;2024-03-22T10:31:14;100234.19;;;16.79;70.28
23996;BME280;12207;50.076;8.848;2024-03-22T10:33:45;100234.97;;;16.96;70.90
23996;BME280;12207;50.076;8.848;2024-03-22T10:36:12;100232.69;;;17.10;68.77
23996;BME280;12207;50.076;8.848;2024-03-22T10:38:39;100220.38;;;17.46;66.39
23996;BME280;12207;50.076;8.848;2024-03-22T10:41:05;100218.13;;;17.64;67.73
23996;BME280;12207;50.076;8.848;2024-03-22T10:43:32;100211.25;;;17.57;64.30
23996;BME280;12207;50.076;8.848;2024-03-22T10:46:04;100206.06;;;17.23;65.10
23996;BME280;12207;50.076;8.848;2024-03-22T10:48:32;100208.47;;;17.52;66.54
23996;BME280;12207;50.076;8.848;2024-03-22T10:51:00;100202.84;;;17.85;63.80
23996;BME280;12207;50.076;8.848;2024-03-22T10:53:30;100197.94;;;17.82;64.79
23996;BME280;12207;50.076;8.848;2024-03-22T10:55:58;100192.63;;;17.97;62.89
23996;BME280;12207;50.076;8.848;2024-03-22T10:58:26;100188.56;;;18.37;61.80
23996;BME280;12207;50.076;8.848;2024-03-22T11:00:52;100179.03;;;18.87;61.78
23996;BME280;12207;50.076;8.848;2024-03-22T11:03:26;100179.50;;;18.63;62.64
23996;BME280;12207;50.076;8.848;2024-03-22T11:05:56;100174.47;;;18.45;63.29
23996;BME280;12207;50.076;8.848;2024-03-22T11:08:30;100177.63;;;18.27;62.99
23996;BME280;12207;50.076;8.848;2024-03-22T11:11:10;100172.31;;;18.47;61.96
23996;BME280;12207;50.076;8.848;2024-03-22T11:13:39;100168.47;;;18.33;62.21
23996;BME280;12207;50.076;8.848;2024-03-22T11:16:06;100173.91;;;18.38;61.61
23996;BME280;12207;50.076;8.848;2024-03-22T11:18:33;100154.72;;;18.02;62.87
23996;BME280;12207;50.076;8.848;2024-03-22T11:21:00;100155.09;;;18.16;62.78
23996;BME280;12207;50.076;8.848;2024-03-22T11:23:26;100149.41;;;18.23;64.20
23996;BME280;12207;50.076;8.848;2024-03-22T11:25:52;100150.50;;;18.27;62.85
23996;BME280;12207;50.076;8.848;2024-03-22T11:28:18;100151.63;;;18.31;64.93
23996;BME280;12207;50.076;8.848;2024-03-22T11:30:45;100137.44;;;18.14;62.73
23996;BME280;12207;50.076;8.848;2024-03-22T11:33:11;100137.56;;;17.92;63.46
23996;BME280;12207;50.076;8.848;2024-03-22T11:35:42;100130.31;;;18.02;65.00
23996;BME280;12207;50.076;8.848;2024-03-22T11:38:08;100121.47;;;18.17;63.68
23996;BME280;12207;50.076;8.848;2024-03-22T11:40:35;100109.25;;;18.15;64.04
23996;BME280;12207;50.076;8.848;2024-03-22T11:43:02;100117.25;;;17.99;64.10
23996;BME280;12207;50.076;8.848;2024-03-22T11:45:31;100112.91;;;17.93;63.93
23996;BME280;12207;50.076;8.848;2024-03-22T11:48:02;100106.41;;;17.94;67.37
23996;BME280;12207;50.076;8.848;2024-03-22T11:50:29;100109.66;;;17.96;64.44
23996;BME280;12207;50.076;8.848;2024-03-22T11:52:58;100107.53;;;18.03;64.48
23996;BME280;12207;50.076;8.848;2024-03-22T11:55:27;100098.84;;;18.01;65.23
23996;BME280;12207;50.076;8.848;2024-03-22T11:57:58;100103.25;;;18.13;64.81
23996;BME280;12207;50.076;8.848;2024-03-22T12:00:24;100097.31;;;18.21;64.98
23996;BME280;12207;50.076;8.848;2024-03-22T12:02:52;100096.84;;;18.34;64.81
23996;BME280;12207;50.076;8.848;2024-03-22T12:05:18;100094.94;;;18.34;64.68
23996;BME280;12207;50.076;8.848;2024-03-22T12:07:45;100095.00;;;18.50;62.68
23996;BME280;12207;50.076;8.848;2024-03-22T12:10:11;100086.84;;;18.50;64.85
23996;BME280;12207;50.076;8.848;2024-03-22T12:12:37;100085.50;;;18.42;63.86
23996;BME280;12207;50.076;8.848;2024-03-22T12:15:07;100078.03;;;18.12;63.96
23996;BME280;12207;50.076;8.848;2024-03-22T12:17:33;100075.28;;;18.07;65.03
23996;BME280;12207;50.076;8.848;2024-03-22T12:20:02;100061.53;;;18.24;64.20
23996;BME280;12207;50.076;8.848;2024-03-22T12:22:31;100062.66;;;18.33;64.94
23996;BME280;12207;50.076;8.848;2024-03-22T12:24:59;100057.47;;;18.26;64.50
23996;BME280;12207;50.076;8.848;2024-03-22T12:27:26;100045.56;;;18.32;65.01
23996;BME280;12207;50.076;8.848;2024-03-22T12:29:52;100048.00;;;18.34;62.94
23996;BME280;12207;50.076;8.848;2024-03-22T12:32:18;100051.75;;;18.23;64.21
23996;BME280;12207;50.076;8.848;2024-03-22T12:34:44;100044.69;;;18.17;65.34
23996;BME280;12207;50.076;8.848;2024-03-22T12:37:10;100035.75;;;18.16;64.98
23996;BME280;12207;50.076;8.848;2024-03-22T12:39:36;100042.00;;;18.17;65.09
23996;BME280;12207;50.076;8.848;2024-03-22T12:42:03;100043.06;;;18.21;64.31
23996;BME280;12207;50.076;8.848;2024-03-22T12:44:29;100040.72;;;18.50;64.16
23996;BME280;12207;50.076;8.848;2024-03-22T12:46:55;100042.16;;;18.62;65.08
23996;BME280;12207;50.076;8.848;2024-03-22T12:49:22;100029.06;;;18.54;63.05